Arcadia, Oklahoma
Current Conditions -  °F | °C
As of 3:53 AM on Sunday 21 Dec 2014 (Local Time) from KGOK Reporting Station
Broken Clouds Broken Clouds  
Wind Chill: 36°   Ceiling: 2300
Heat Index: 41°   Visibility: 9mi
Dew Point: 37°   Wind: 8mph
Humidity: 86%   Direction: 160°SSE
Pressure: 30.06"   Gusts: NA
Location:  35.67°N, 97.33°W
Report Text: KGOK 210953Z AUTO 16007KT 9SM BKN023 05/03 A3006 RMK AO2 SLP186 T00500028
Loading
Personal Weather Stations






























Interactive Weather Map New forecast layout! Learn more

10-Day Weather Forecast

Advertisements
Track Severe Weather on mobile